< Typhoon 196320 1963 Season Typhoon 196322 >
Typhoon 196321 (ORA)
General InformationTrack Information on Google Maps || Disaster Info.ResourceGoogle EarthGE AnimationAtom FeedGeoJSON
Detalied Best Track (Time Zone = UTC)
Year Month Day Hour Lat. Long. Pressure (hPa) Wind (kt) Class Image Chart
1963 10 22 18 15.0 164.0 1006 0 2 -- Chart
1963 10 23 00 16.0 163.1 1004 0 2 -- Chart
1963 10 23 06 16.6 162.6 1004 0 2 -- Chart
1963 10 23 12 17.0 161.5 1002 0 2 -- Chart
1963 10 23 18 17.6 160.4 1000 0 2 -- Chart
1963 10 24 00 18.2 159.7 1000 0 2 -- Chart
1963 10 24 06 18.5 159.6 1000 0 2 -- Chart
1963 10 24 12 18.8 159.3 1000 0 2 -- Chart
1963 10 24 18 19.0 158.8 1000 0 2 -- Chart
1963 10 25 00 19.5 158.2 1000 0 2 -- Chart
1963 10 25 06 19.8 157.6 1000 0 2 -- Chart
1963 10 25 12 20.1 157.1 1000 0 2 -- Chart
1963 10 25 18 20.3 156.6 995 0 2 -- Chart
1963 10 26 00 20.6 156.1 990 0 9 -- Chart
1963 10 26 06 21.2 155.6 990 0 9 -- Chart
1963 10 26 12 21.8 154.9 990 0 9 -- Chart
1963 10 26 18 22.5 154.3 985 0 9 -- Chart
1963 10 27 00 23.3 153.3 985 0 9 -- Chart
1963 10 27 06 24.2 151.8 985 0 9 -- Chart
1963 10 27 12 24.3 150.9 985 0 9 -- Chart
1963 10 27 18 24.7 149.9 985 0 9 -- Chart
1963 10 28 00 25.0 149.1 985 0 9 -- Chart
1963 10 28 06 25.6 149.6 985 0 9 -- Chart
1963 10 28 12 26.2 150.1 985 0 9 -- Chart
1963 10 28 18 27.5 151.1 985 0 9 -- Chart
1963 10 29 00 29.1 152.1 985 0 9 -- Chart
1963 10 29 06 30.5 152.5 985 0 9 -- Chart
1963 10 29 12 31.8 153.0 985 0 9 -- Chart
1963 10 29 18 33.1 154.1 990 0 9 -- Chart
1963 10 30 00 34.2 155.3 990 0 9 -- Chart
1963 10 30 06 35.6 156.6 990 0 9 -- Chart
1963 10 30 12 37.1 158.1 990 0 6 -- Chart
1963 10 30 18 39.2 160.0 990 0 6 -- Chart
1963 10 31 00 41.7 162.7 990 0 6 -- Chart
1963 10 31 06 44.2 164.5 990 0 6 -- Chart
1963 10 31 12 46.6 167.5 986 0 6 -- Chart
1963 10 31 18 48.0 171.0 986 0 6 -- Chart
1963 11 1 00 49.0 176.0 982 0 6 -- Chart
1963 11 1 06 50.0 180.0 980 0 6 -- Chart
1963 11 1 12 50.5 183.7 982 0 6 -- Chart
Japan Meteorological Agency Best Track Data | Correction Date : 1991-07-16
< Typhoon 196320 1963 Season Typhoon 196322 >

Help